Tim Quigg — WDB6570 — position and weather

sailwx.info

Track history (hours):
 
Tides and Currents Weather Stations Pressure Air Temp Water Temp Dewpoint Dewpoint Depression Visibility Wind Speed Wind Dir Waves Ship Positions

Tim Quigg

Owner: Harley Marine Services, Inc, Seattle, WA. More information available from US FCC via Universal Licensing System and Coast Guard Vessel Documentation Center.

Last reported at 2015-May-28 02:22 UTC. Time now 2015-May-28 16:03 UTC.
Position N 33°44' W 118°16'.

; draft 7.5 m.

Type: Tug. MMSI: 366926740.

Date/timePositionNaut miles runAvg speedWind from/ knotsBaromVisibWave heightAir tempDewpointWater temp
2015-May-28 02:22N 33°44' W 118°16'2 2.2
2015-May-28 01:25N 33°44' W 118°13'1 1.6
2015-May-28 00:33N 33°45' W 118°12'3 2.6
2015-May-27 23:34N 33°46' W 118°14'2 2.2
2015-May-27 22:33N 33°45' W 118°17'3 0.4
2015-May-27 16:28N 33°44' W 118°14'2 2.3
2015-May-27 15:33N 33°46' W 118°13'2 2.3
2015-May-27 14:33N 33°45' W 118°16'2 1.9
2015-May-27 13:33N 33°46' W 118°14'2 1.8
2015-May-27 12:33N 33°44' W 118°13'2 1.8
2015-May-27 11:34N 33°46' W 118°13'3 0.3
2015-May-27 02:22N 33°44' W 118°16'0 0.0
2015-May-27 00:30N 33°44' W 118°16'2 0.9
2015-May-26 22:33N 33°43' W 118°13'2 0.8
2015-May-26 20:25N 33°43' W 118°16'1 0.9
2015-May-26 19:23N 33°44' W 118°16'0 0.0
2015-May-26 12:10N 33°44' W 118°16'0 0.0
2015-May-26 11:24N 33°44' W 118°16'0 0.0
2015-May-26 10:31N 33°44' W 118°16'0 0.0
2015-May-26 09:09N 33°44' W 118°16'0 0.0
2015-May-26 07:32N 33°44' W 118°16'0 0.0
2015-May-26 06:23N 33°44' W 118°16'1 0.3
2015-May-26 01:23N 33°43' W 118°14'2 2.4
2015-May-26 00:33N 33°44' W 118°13'0 0.5
2015-May-25 23:33N 33°44' W 118°13'2 0.4
2015-May-25 18:07N 33°44' W 118°16'0 0.0
2015-May-25 17:15N 33°44' W 118°16'2 0.1
2015-May-25 02:29N 33°44' W 118°14'0 0.2
2015-May-25 01:33N 33°44' W 118°13'2 1.6
2015-May-25 00:21N 33°44' W 118°16'0 0.0
2015-May-24 23:32N 33°44' W 118°16'0 0.0
2015-May-24 22:17N 33°44' W 118°16'0 0.0
2015-May-24 21:30N 33°44' W 118°16'0 0.0
2015-May-23 20:07N 33°44' W 118°16'0 0.0
2015-May-23 17:31N 33°44' W 118°16'0 0.0
2015-May-23 16:25N 33°44' W 118°16'0 0.0
2015-May-23 15:14N 33°44' W 118°16'0 0.0
2015-May-23 14:33N 33°44' W 118°16'1 0.2
2015-May-23 12:18N 33°44' W 118°15'1 0.1
2015-May-23 07:25N 33°44' W 118°16'0 0.0
2015-May-23 06:15N 33°44' W 118°16'0 0.0
2015-May-23 05:24N 33°44' W 118°16'0 0.0
2015-May-22 22:32N 33°44' W 118°16'0 0.0
2015-May-22 21:33N 33°44' W 118°16'0 0.0
2015-May-22 20:29N 33°44' W 118°16'0 0.0
2015-May-22 19:24N 33°44' W 118°16'0 0.0
2015-May-22 18:30N 33°44' W 118°16'0 0.0
2015-May-22 16:34N 33°44' W 118°16'0 0.0
2015-May-22 01:19N 33°44' W 118°16'0 0.0
2015-May-22 00:30N 33°44' W 118°16'0 0.0
2015-May-21 23:29N 33°44' W 118°16'0 0.0
2015-May-21 22:31N 33°44' W 118°16'0 0.0
2015-May-21 21:03N 33°44' W 118°16'0 0.0
2015-May-21 20:31N 33°44' W 118°16'0 0.0
2015-May-21 19:30N 33°44' W 118°16'0 0.0
2015-May-21 18:34N 33°44' W 118°16'0 0.0
2015-May-21 17:34N 33°44' W 118°16'0 0.0
2015-May-21 16:34N 33°44' W 118°16'0 0.0
2015-May-21 15:33N 33°44' W 118°16'0 0.0
2015-May-20 06:08N 33°44' W 118°16'2 0.7
2015-May-20 03:27N 33°45' W 118°14'1 1.1
2015-May-20 02:33N 33°44' W 118°13'2 1.0
2015-May-20 00:23N 33°44' W 118°16'2 1.8
2015-May-19 23:28N 33°43' W 118°14'1 1.4
2015-May-19 22:31N 33°44' W 118°13'2 1.9
2015-May-19 21:13N 33°44' W 118°16'0 0.0
2015-May-19 16:21N 33°44' W 118°16'0 0.0
2015-May-19 15:33N 33°44' W 118°16'0 0.0
2015-May-19 14:09N 33°44' W 118°16'0 0.0
2015-May-19 12:34N 33°44' W 118°16'0 0.0
2015-May-19 01:30N 33°44' W 118°16'0 0.0
2015-May-19 00:33N 33°44' W 118°16'0 0.0
2015-May-18 23:13N 33°44' W 118°16'3 4.9
2015-May-18 22:32N 33°44' W 118°12'5 5.2
2015-May-18 21:33N 33°44' W 118°06'3 2.9
2015-May-18 20:34N 33°44' W 118°09'6 4.2
2015-May-18 19:13N 33°44' W 118°16'0 0.0
2015-May-18 18:13N 33°44' W 118°16'0 0.0
2015-May-18 17:25N 33°44' W 118°16'3 0.7
2015-May-18 13:33N 33°45' W 118°13'1 0.7
2015-May-18 12:31N 33°45' W 118°13'1 0.8
2015-May-18 11:33N 33°45' W 118°12'2 1.9
2015-May-18 10:34N 33°46' W 118°13'  
Track history (hours):
 
Tides and Currents Weather Stations Pressure Air Temp Water Temp Dewpoint Dewpoint Depression Visibility Wind Speed Wind Dir Waves Ship Positions

Tim Quigg

Owner: Harley Marine Services, Inc, Seattle, WA. More information available from US FCC via Universal Licensing System and Coast Guard Vessel Documentation Center.

Last reported at 2015-May-28 02:22 UTC. Time now 2015-May-28 16:03 UTC.
Position N 33°44' W 118°16'.

; draft 7.5 m.

Type: Tug. MMSI: 366926740.

Date/timePositionNaut miles runAvg speedWind from/ knotsBaromVisibWave heightAir tempDewpointWater temp
2015-May-28 02:22N 33°44' W 118°16'2 2.2
2015-May-28 01:25N 33°44' W 118°13'1 1.6
2015-May-28 00:33N 33°45' W 118°12'3 2.6
2015-May-27 23:34N 33°46' W 118°14'2 2.2
2015-May-27 22:33N 33°45' W 118°17'3 0.4
2015-May-27 16:28N 33°44' W 118°14'2 2.3
2015-May-27 15:33N 33°46' W 118°13'2 2.3
2015-May-27 14:33N 33°45' W 118°16'2 1.9
2015-May-27 13:33N 33°46' W 118°14'2 1.8
2015-May-27 12:33N 33°44' W 118°13'2 1.8
2015-May-27 11:34N 33°46' W 118°13'3 0.3
2015-May-27 02:22N 33°44' W 118°16'0 0.0
2015-May-27 00:30N 33°44' W 118°16'2 0.9
2015-May-26 22:33N 33°43' W 118°13'2 0.8
2015-May-26 20:25N 33°43' W 118°16'1 0.9
2015-May-26 19:23N 33°44' W 118°16'0 0.0
2015-May-26 12:10N 33°44' W 118°16'0 0.0
2015-May-26 11:24N 33°44' W 118°16'0 0.0
2015-May-26 10:31N 33°44' W 118°16'0 0.0
2015-May-26 09:09N 33°44' W 118°16'0 0.0
2015-May-26 07:32N 33°44' W 118°16'0 0.0
2015-May-26 06:23N 33°44' W 118°16'1 0.3
2015-May-26 01:23N 33°43' W 118°14'2 2.4
2015-May-26 00:33N 33°44' W 118°13'0 0.5
2015-May-25 23:33N 33°44' W 118°13'2 0.4
2015-May-25 18:07N 33°44' W 118°16'0 0.0
2015-May-25 17:15N 33°44' W 118°16'2 0.1
2015-May-25 02:29N 33°44' W 118°14'0 0.2
2015-May-25 01:33N 33°44' W 118°13'2 1.6
2015-May-25 00:21N 33°44' W 118°16'0 0.0
2015-May-24 23:32N 33°44' W 118°16'0 0.0
2015-May-24 22:17N 33°44' W 118°16'0 0.0
2015-May-24 21:30N 33°44' W 118°16'0 0.0
2015-May-23 20:07N 33°44' W 118°16'0 0.0
2015-May-23 17:31N 33°44' W 118°16'0 0.0
2015-May-23 16:25N 33°44' W 118°16'0 0.0
2015-May-23 15:14N 33°44' W 118°16'0 0.0
2015-May-23 14:33N 33°44' W 118°16'1 0.2
2015-May-23 12:18N 33°44' W 118°15'1 0.1
2015-May-23 07:25N 33°44' W 118°16'0 0.0
2015-May-23 06:15N 33°44' W 118°16'0 0.0
2015-May-23 05:24N 33°44' W 118°16'0 0.0
2015-May-22 22:32N 33°44' W 118°16'0 0.0
2015-May-22 21:33N 33°44' W 118°16'0 0.0
2015-May-22 20:29N 33°44' W 118°16'0 0.0
2015-May-22 19:24N 33°44' W 118°16'0 0.0
2015-May-22 18:30N 33°44' W 118°16'0 0.0
2015-May-22 16:34N 33°44' W 118°16'0 0.0
2015-May-22 01:19N 33°44' W 118°16'0 0.0
2015-May-22 00:30N 33°44' W 118°16'0 0.0
2015-May-21 23:29N 33°44' W 118°16'0 0.0
2015-May-21 22:31N 33°44' W 118°16'0 0.0
2015-May-21 21:03N 33°44' W 118°16'0 0.0
2015-May-21 20:31N 33°44' W 118°16'0 0.0
2015-May-21 19:30N 33°44' W 118°16'0 0.0
2015-May-21 18:34N 33°44' W 118°16'0 0.0
2015-May-21 17:34N 33°44' W 118°16'0 0.0
2015-May-21 16:34N 33°44' W 118°16'0 0.0
2015-May-21 15:33N 33°44' W 118°16'0 0.0
2015-May-20 06:08N 33°44' W 118°16'2 0.7
2015-May-20 03:27N 33°45' W 118°14'1 1.1
2015-May-20 02:33N 33°44' W 118°13'2 1.0
2015-May-20 00:23N 33°44' W 118°16'2 1.8
2015-May-19 23:28N 33°43' W 118°14'1 1.4
2015-May-19 22:31N 33°44' W 118°13'2 1.9
2015-May-19 21:13N 33°44' W 118°16'0 0.0
2015-May-19 16:21N 33°44' W 118°16'0 0.0
2015-May-19 15:33N 33°44' W 118°16'0 0.0
2015-May-19 14:09N 33°44' W 118°16'0 0.0
2015-May-19 12:34N 33°44' W 118°16'0 0.0
2015-May-19 01:30N 33°44' W 118°16'0 0.0
2015-May-19 00:33N 33°44' W 118°16'0 0.0
2015-May-18 23:13N 33°44' W 118°16'3 4.9
2015-May-18 22:32N 33°44' W 118°12'5 5.2
2015-May-18 21:33N 33°44' W 118°06'3 2.9
2015-May-18 20:34N 33°44' W 118°09'6 4.2
2015-May-18 19:13N 33°44' W 118°16'0 0.0
2015-May-18 18:13N 33°44' W 118°16'0 0.0
2015-May-18 17:25N 33°44' W 118°16'3 0.7
2015-May-18 13:33N 33°45' W 118°13'1 0.7
2015-May-18 12:31N 33°45' W 118°13'1 0.8
2015-May-18 11:33N 33°45' W 118°12'2 1.9
2015-May-18 10:34N 33°46' W 118°13'  

Dump ship's entire track history